• Join FlightAware (Why Join?)
  • Login
  • US Flag 
07:25PM EDT


 

Airport Tracker/Info


-or-


 

Live Flight TrackerFlight Track Log ✈ SLI2072 ✈ 14-Oct-2013 ✈ MMMX / MEX - MMLP / LAP

Flight Track Log - Related Links

Times and Time Zones

All times are in EDT time to prevent confusion due to time zone crossing. See the SLI2072 flight status page for this flight to view local times or setup timezone preferences in your user account.

Time Position Orientation Groundspeed Altitude Reporting Facility
EDT Latitude Longitude Course Direction KTS MPH feet Rate Location/Type
05:34PM 19.7228 -99.7019 296° West  Level Estimated
05:35PM 19.7798 -99.8281 296° West  Level Estimated
05:36PM 19.8368 -99.9544 296° West  Level Estimated
05:37PM 19.8936 -100.0808 296° West  Level Estimated
05:38PM 19.9504 -100.2073 296° West  Level Estimated
05:39PM 20.0071 -100.3339 295° West  Level Estimated
05:40PM 20.0637 -100.4606 295° West  Level Estimated
05:41PM 20.1202 -100.5874 295° West  Level Estimated
05:42PM 20.1766 -100.7142 295° West  Level Estimated
05:43PM 20.2329 -100.8412 295° West  Level Estimated
05:44PM 20.2891 -100.9682 295° West  Level Estimated
05:45PM 20.3452 -101.0954 295° West  Level Estimated
05:46PM 20.4013 -101.2226 295° West  Level Estimated
05:47PM 20.4572 -101.3499 295° West  Level Estimated
05:48PM 20.5131 -101.4773 295° West  Level Estimated
05:49PM 20.5689 -101.6049 295° West  Level Estimated
05:50PM 20.6245 -101.7325 295° West  Level Estimated
05:51PM 20.6801 -101.8602 295° West  Level Estimated
05:52PM 20.7356 -101.9879 295° West  Level Estimated
05:53PM 20.7910 -102.1158 295° West  Level Estimated
05:54PM 20.8463 -102.2438 295° West  Level Estimated
05:55PM 20.9015 -102.3719 295° West  Level Estimated
05:56PM 20.9566 -102.5000 295° West  Level Estimated
05:57PM 21.0116 -102.6283 295° West  Level Estimated
05:58PM 21.0665 -102.7566 295° West  Level Estimated
05:59PM 21.1213 -102.8851 295° West  Level Estimated
06:00PM 21.1760 -103.0136 295° West  Level Estimated
06:01PM 21.2306 -103.1423 295° West  Level Estimated
06:02PM 21.2852 -103.2710 294° West  Level Estimated
06:03PM 21.3396 -103.3998 294° West  Level Estimated
06:04PM 21.3939 -103.5287 294° West  Level Estimated
06:05PM 21.4481 -103.6578 294° West  Level Estimated
06:06PM 21.5023 -103.7869 294° West  Level Estimated
06:07PM 21.5563 -103.9161 294° West  Level Estimated
06:08PM 21.6102 -104.0454 294° West  Level Estimated
06:09PM 21.6640 -104.1748 294° West  Level Estimated
06:10PM 21.7178 -104.3043 294° West  Level Estimated
06:11PM 21.7714 -104.4339 294° West  Level Estimated
06:12PM 21.8249 -104.5636 294° West  Level Estimated
06:13PM 21.8784 -104.6934 294° West  Level Estimated
06:14PM 21.9317 -104.8233 294° West  Level Estimated
06:15PM 21.9849 -104.9533 294° West  Level Estimated
06:16PM 22.0380 -105.0834 294° West  Level Estimated
06:17PM 22.0910 -105.2135 294° West  Level Estimated
06:18PM 22.1439 -105.3438 294° West  Level Estimated
06:19PM 22.1968 -105.4742 294° West  Level Estimated
06:20PM 22.2495 -105.6047 294° West  Level Estimated
06:21PM 22.3021 -105.7352 294° West  Level Estimated
06:22PM 22.3546 -105.8659 294° West  Level Estimated
06:23PM 22.4070 -105.9967 293° West  Level Estimated
06:24PM 22.4592 -106.1275 293° West  Level Estimated
06:25PM 22.5114 -106.2585 293° West  Level Estimated
06:26PM 22.5635 -106.3896 293° West  Level Estimated
06:27PM 22.6155 -106.5207 293° West  Level Estimated
06:28PM 22.6673 -106.6520 293° West  Level Estimated
06:29PM 22.7191 -106.7834 293° West  Level Estimated
06:30PM 22.7707 -106.9148 293° West  Level Estimated
06:31PM 22.8223 -107.0464 293° West  Level Estimated
06:32PM 22.8737 -107.1780 293° West  Level Estimated
06:33PM 22.9250 -107.3098 293° West  Level Estimated
06:34PM 22.9762 -107.4417 293° West  Level Estimated
06:35PM 23.0273 -107.5736 293° West  Level Estimated
06:36PM 23.0783 -107.7057 293° West  Level Estimated
06:37PM 23.1292 -107.8378 293° West  Level Estimated
06:38PM 23.1800 -107.9701 293° West  Level Estimated
06:39PM 23.2307 -108.1025 293° West  Level Estimated
06:40PM 23.2812 -108.2349 293° West  Level Estimated
06:41PM 23.3317 -108.3675 293° West  Level Estimated
06:42PM 23.3820 -108.5001 292° West  Level Estimated
06:43PM 23.4322 -108.6329 292° West  Level Estimated
06:44PM 23.4823 -108.7658 292° West  Level Estimated
06:45PM 23.5323 -108.8987 292° West  Level Estimated
06:46PM 23.5822 -109.0318 292° West  Level Estimated
06:47PM 23.6320 -109.1650 292° West  Level Estimated
06:48PM 23.6816 -109.2982 292° West  Level Estimated
06:49PM 23.7311 -109.4316 292° West  Level Estimated
06:50PM 23.7806 -109.5651 292° West  Level Estimated
06:51PM 23.8299 -109.6986 292° West  Level Estimated
06:52PM 23.8791 -109.8323 292° West  Level Estimated
06:53PM 23.9282 -109.9661 292° West  Level Estimated
06:54PM 23.9771 -110.1000 292° West  Level Estimated
06:55PM 24.0260 -110.2339 292° West  Level Estimated
06:56PM 24.0727 -110.3625 292° West  Level Estimated
06:57PM 24.0727 -110.3625 49° Northeast  Level Estimated
06:58PM 24.0727 -110.3625 49° Northeast  Level Estimated
06:59PM 24.0727 -110.3625 49° Northeast  Level Estimated
07:00PM 24.0727 -110.3625 49° Northeast  Level Estimated
07:01PM 24.0727 -110.3625 49° Northeast  Level Estimated
07:02PM 24.0727 -110.3625 49° Northeast  Level Estimated
07:03PM 24.0727 -110.3625 49° Northeast  Level Estimated
07:04PM 24.0727 -110.3625 49° Northeast  Level Estimated
07:05PM 24.0727 -110.3625 49° Northeast  Level Estimated
07:06PM 24.0727 -110.3625 49° Northeast  Level Estimated
07:07PM 24.0727 -110.3625 49° Northeast  Level Estimated
07:08PM 24.0727 -110.3625 49° Northeast  Level Estimated
07:09PM 24.0727 -110.3625 49° Northeast  Level Estimated
07:10PM 24.0727 -110.3625 49° Northeast  Level Estimated
07:11PM 24.0727 -110.3625 49° Northeast  Level Estimated
07:12PM 24.0727 -110.3625 49° Northeast  Level Estimated